Rochester, MN (55904)

9:52 AM CDT on July 31, 2015 (GMT -0500)
Quarry Hill Nature Center | | Change Station
CLOSE
Current Station
Personal Weather Station
Location: Rochester, MN
Elevation: 1020 ft
Nearby Weather Stations

Elev 1020 ft 44.03 °N, 92.43 °W | Updated 10 seconds ago

Clear
Clear
73.5 °F
Feels Like 77 °F
N
5.0
Wind Variable Wind from North
Gusts 11.0 mph

Today
High -- | Low -- °F
--% Chance of Precip.
Yesterday
High -- | Low -- °F
Precip. -- in
5:56 AM 8:34 PM
Full, 100% visible
Pressure 30.10 in
Visibility 7.0 miles
Clouds Clear
Heat Index 77 °F
Dew Point 58 °F
Humidity 59%
Rainfall 0.00 in
Snow Depth Not available.
UV 5 out of 12
Pollen 7.50 out of 12
Air Quality Not available.
Flu Activity Not available.
METAR K9MN 311434Z AUTO 30013G18KT 270V030 7SM CLR 22/12 A3010 RMK AO1 T02200121

More Conditions Fewer Conditions

Pressure 30.10 in
Visibility 7.0 miles
Clouds Clear
Heat Index 77 °F
Dew Point 58 °F
Humidity 59%
Rainfall 0.00 in
Snow Depth Not available.
UV 5 out of 12
Pollen 7.50 out of 12
Air Quality Not available.
Flu Activity Not available.
METAR K9MN 311434Z AUTO 30013G18KT 270V030 7SM CLR 22/12 A3010 RMK AO1 T02200121

More Conditions Fewer Conditions

10-Day Weather Forecast

×

Almanac

Astronomy

Jul. 31, 2015 Rise Set
Actual Time
Civil Twilight
Nautical Twilight
Astronomical Twilight
Moon
Length of Visible Light
Length of Day
Tomorrow will be .
, % of the Moon is Illuminated

Today's Extremes

State Highs State Lows

Community

WunderPhotos

Upload Photos

1,842,666 photos uploaded!

WunderBlogs® & News

Nearby

Air Quality

  Air Quality AQ Index Pollutant
Not available.

Snow Depth

Station Depth Elevation

Earthquake Activity

City Distance Mag. Time & Date
Minimum magnitude displayed is 2.5.

Coastal Water Temperatures

Place Temperature

Stations

Nearby Weather Stations

Station Location Temp. Windchill Dew Point Humidity Wind Precip. Elev Updated Type